Barbara Foss — WYL4318 — position and weather

sailwx.info

Track history (hours):
 
Tides and Currents Weather Stations Pressure Air Temp Water Temp Dewpoint Dewpoint Depression Visibility Wind Speed Wind Dir Waves Ship Positions

Barbara Foss

Owner: Foss International, Inc, SEATTLE, WA. More information available from US FCC via Universal Licensing System and Coast Guard Vessel Documentation Center.

Last reported at 2015-Feb-01 06:00 UTC. Time now 2015-Feb-01 07:10 UTC.
Position N 59°48' W 145°24'.

Length 39 m; draft 5.5 m.

Type: Tow > 200 m length. MMSI: 366932130.

Wind from 050 at 23 knots

Waves 1.0 meters (3 feet)

Barometer 1019.8 mb
Air temperature -0.0 ° C
Visibility: greater than 5.4 NM

Date/timePositionNaut miles runAvg speedWind from/ knotsBaromVisibWave heightAir tempDewpointWater temp
2015-Feb-01 06:00N 59°48' W 145°24'7310.4 050 / 231019.8 5.4 1.0-0.0
2015-Jan-31 23:00N 60°48' W 146°48'60 1.9 360 / 81025.010.8 0.5 7.2
2015-Jan-30 15:00N 60°00' W 145°36'92 6.1 060 / 251023.610.8 1.0 0.6
2015-Jan-30 00:00N 59°18' W 142°54'139 7.7 160 / 181016.9 5.4 1.5 6.1
2015-Jan-29 06:00N 58°30' W 138°42'92 8.4 030 / 181007.9 5.4 2.0 3.3
2015-Jan-28 19:00N 58°18' W 135°48'510.7 320 / 131016.9 2.2 0.5-0.0
2015-Jan-28 18:33N 58°16' W 135°56'50 7.6
2015-Jan-28 12:00N 57°42' W 134°48'42 7.0 360 / 101019.3 5.4 0.5 1.2
2015-Jan-28 06:00N 57°00' W 134°42'56 9.3 360 / 81018.1 5.4 0.5 2.8
2015-Jan-28 00:00N 56°06' W 134°18'27 5.4 360 / 81014.9 5.4 0.5 3.9
2015-Jan-27 19:00N 56°24' W 133°42'0 0.0 300 / 131011.3 5.4 0.5 3.3
2015-Jan-27 18:00N 56°24' W 133°42'56 9.4 290 / 141011.310.8 0.5
2015-Jan-27 12:00N 55°48' W 132°24'40 6.6 340 / 141004.710.8 0.5
2015-Jan-27 06:00N 55°12' W 131°54'59 7.6 320 / 231002.3 5.4 1.0 5.6
2015-Jan-26 22:12N 54°21' W 131°02'5 7.5
2015-Jan-26 21:33N 54°19' W 130°55'8 8.0
2015-Jan-26 20:33N 54°15' W 130°43'8 8.3
2015-Jan-26 19:33N 54°13' W 130°29'5 5.4
2015-Jan-26 18:34N 54°16' W 130°22'2 1.7
2015-Jan-26 17:33N 54°18' W 130°21'2 1.7
2015-Jan-26 16:33N 54°19' W 130°19'0 0.1
2015-Jan-26 15:33N 54°19' W 130°19'2 0.2
2015-Jan-26 07:10N 54°18' W 130°21'0 0.0
2015-Jan-26 06:33N 54°18' W 130°21'0 0.0
2015-Jan-26 05:33N 54°18' W 130°21'0 0.0
2015-Jan-26 04:33N 54°18' W 130°21'0 0.0
2015-Jan-26 03:33N 54°18' W 130°21'0 0.0
2015-Jan-26 02:33N 54°18' W 130°21'0 0.0
2015-Jan-26 01:33N 54°18' W 130°21'0 0.0
2015-Jan-26 00:33N 54°18' W 130°21'0 0.0
2015-Jan-25 23:33N 54°18' W 130°21'  
2015-Jan-23 18:00N 57°30' W 134°48'71 5.9 160 / 15996.9 1.1 1.0
2015-Jan-23 06:00N 58°06' W 136°42'34 5.6 180 / 25996.8 2.2 1.0 7.0
2015-Jan-23 00:00N 58°18' W 137°42'155 6.5 140 / 28994.9 2.2 0.5 7.8
2015-Jan-22 00:00N 59°18' W 142°18'   070 / 20979.7 5.4 0.5 7.2
Track history (hours):
 
Tides and Currents Weather Stations Pressure Air Temp Water Temp Dewpoint Dewpoint Depression Visibility Wind Speed Wind Dir Waves Ship Positions

Barbara Foss

Owner: Foss International, Inc, SEATTLE, WA. More information available from US FCC via Universal Licensing System and Coast Guard Vessel Documentation Center.

Last reported at 2015-Feb-01 06:00 UTC. Time now 2015-Feb-01 07:10 UTC.
Position N 59°48' W 145°24'.

Length 39 m; draft 5.5 m.

Type: Tow > 200 m length. MMSI: 366932130.

Wind from 050 at 23 knots

Waves 1.0 meters (3 feet)

Barometer 1019.8 mb
Air temperature -0.0 ° C
Visibility: greater than 5.4 NM

Date/timePositionNaut miles runAvg speedWind from/ knotsBaromVisibWave heightAir tempDewpointWater temp
2015-Feb-01 06:00N 59°48' W 145°24'7310.4 050 / 231019.8 5.4 1.0-0.0
2015-Jan-31 23:00N 60°48' W 146°48'60 1.9 360 / 81025.010.8 0.5 7.2
2015-Jan-30 15:00N 60°00' W 145°36'92 6.1 060 / 251023.610.8 1.0 0.6
2015-Jan-30 00:00N 59°18' W 142°54'139 7.7 160 / 181016.9 5.4 1.5 6.1
2015-Jan-29 06:00N 58°30' W 138°42'92 8.4 030 / 181007.9 5.4 2.0 3.3
2015-Jan-28 19:00N 58°18' W 135°48'510.7 320 / 131016.9 2.2 0.5-0.0
2015-Jan-28 18:33N 58°16' W 135°56'50 7.6
2015-Jan-28 12:00N 57°42' W 134°48'42 7.0 360 / 101019.3 5.4 0.5 1.2
2015-Jan-28 06:00N 57°00' W 134°42'56 9.3 360 / 81018.1 5.4 0.5 2.8
2015-Jan-28 00:00N 56°06' W 134°18'27 5.4 360 / 81014.9 5.4 0.5 3.9
2015-Jan-27 19:00N 56°24' W 133°42'0 0.0 300 / 131011.3 5.4 0.5 3.3
2015-Jan-27 18:00N 56°24' W 133°42'56 9.4 290 / 141011.310.8 0.5
2015-Jan-27 12:00N 55°48' W 132°24'40 6.6 340 / 141004.710.8 0.5
2015-Jan-27 06:00N 55°12' W 131°54'59 7.6 320 / 231002.3 5.4 1.0 5.6
2015-Jan-26 22:12N 54°21' W 131°02'5 7.5
2015-Jan-26 21:33N 54°19' W 130°55'8 8.0
2015-Jan-26 20:33N 54°15' W 130°43'8 8.3
2015-Jan-26 19:33N 54°13' W 130°29'5 5.4
2015-Jan-26 18:34N 54°16' W 130°22'2 1.7
2015-Jan-26 17:33N 54°18' W 130°21'2 1.7
2015-Jan-26 16:33N 54°19' W 130°19'0 0.1
2015-Jan-26 15:33N 54°19' W 130°19'2 0.2
2015-Jan-26 07:10N 54°18' W 130°21'0 0.0
2015-Jan-26 06:33N 54°18' W 130°21'0 0.0
2015-Jan-26 05:33N 54°18' W 130°21'0 0.0
2015-Jan-26 04:33N 54°18' W 130°21'0 0.0
2015-Jan-26 03:33N 54°18' W 130°21'0 0.0
2015-Jan-26 02:33N 54°18' W 130°21'0 0.0
2015-Jan-26 01:33N 54°18' W 130°21'0 0.0
2015-Jan-26 00:33N 54°18' W 130°21'0 0.0
2015-Jan-25 23:33N 54°18' W 130°21'  
2015-Jan-23 18:00N 57°30' W 134°48'71 5.9 160 / 15996.9 1.1 1.0
2015-Jan-23 06:00N 58°06' W 136°42'34 5.6 180 / 25996.8 2.2 1.0 7.0
2015-Jan-23 00:00N 58°18' W 137°42'155 6.5 140 / 28994.9 2.2 0.5 7.8
2015-Jan-22 00:00N 59°18' W 142°18'   070 / 20979.7 5.4 0.5 7.2

Dump ship's entire track history